Weather at Gimo gräsfält

Public forecast

Using degrees Celsius for public forecast. Weather courtesy of forecast.io.

Closest aviation weather report (METAR) to Gimo gräsfält

Closest report is Ärna Air Base, 24.7 nm (45.8 km) SW.

2023/02/07 23:50 (retrieved 10 minutes ago)

ESCM 072350Z AUTO 23007KT 9999 OVC020/// 02/02 Q1031

Closest aviation forecast (TAF) to Gimo gräsfält

Closest forecast is Moss Airport, Rygge, 228.8 nm (423.8 km) W.

2023/02/07 21:39 Ammendment (retrieved 2 hours ago)

AMD ENRY 072123Z 0721/0818 VRB03KT 0100 FZFG VV001 TEMPO 0721/0808 6000 NSW FEW002 BECMG 0808/0810 20015KT 0800 FG VV002 TEMPO 0810/0818 2000 BR BKN004 TEMPO 0812/0818 20018G30KT